Time;durP1;ratioP1;P1;durP2;ratioP2;P2;SDS_P1;SDS_P2;PMS_P1;PMS_P2;Temp;Humidity;BMP_temperature;BMP_pressure;BME280_temperature;BME280_humidity;BME280_pressure;Samples;Min_cycle;Max_cycle;Signal;HPM_P1;HPM_P2
2022/08/14 00:00:12;;;;;;;10.48;4.25;;;22.10;95.90;;;;;;5059635;28;263861;-65
2022/08/14 00:02:39;;;;;;;10.07;4.25;;;22.10;96.10;;;;;;5029512;28;209233;-67
2022/08/14 00:05:11;;;;;;;8.77;4.40;;;22.00;96.20;;;;;;5042219;28;261390;-66
2022/08/14 00:07:37;;;;;;;10.60;4.25;;;22.00;96.40;;;;;;5021511;28;217624;-66
2022/08/14 00:10:06;;;;;;;9.68;4.57;;;22.00;96.40;;;;;;5060478;28;269395;-66
2022/08/14 00:12:35;;;;;;;10.98;4.60;;;21.90;96.40;;;;;;5032539;28;228946;-66
2022/08/14 00:15:04;;;;;;;11.27;4.65;;;21.90;96.50;;;;;;5059476;28;258031;-66
2022/08/14 00:17:30;;;;;;;9.13;4.70;;;21.80;96.70;;;;;;5001655;28;211465;-66
2022/08/14 00:19:56;;;;;;;9.43;4.80;;;21.80;96.80;;;;;;5060852;28;257094;-67
2022/08/14 00:22:22;;;;;;;10.40;4.90;;;21.80;96.90;;;;;;5016005;28;218795;-67
2022/08/14 00:24:48;;;;;;;11.13;4.68;;;21.80;97.00;;;;;;5041827;28;256014;-66
2022/08/14 00:27:15;;;;;;;10.63;4.60;;;21.70;97.10;;;;;;5012597;28;207006;-66
2022/08/14 00:29:41;;;;;;;10.10;5.00;;;21.70;97.30;;;;;;5058980;28;266927;-66
2022/08/14 00:32:07;;;;;;;9.18;4.80;;;21.70;97.50;;;;;;5031015;28;211798;-66
2022/08/14 00:34:34;;;;;;;10.25;5.55;;;21.70;97.50;;;;;;5038001;28;158707;-66
2022/08/14 00:37:00;;;;;;;11.68;5.18;;;21.60;97.60;;;;;;5027655;28;208939;-66
2022/08/14 00:39:26;;;;;;;9.88;5.20;;;21.60;97.80;;;;;;5060204;28;258615;-66
2022/08/14 00:41:52;;;;;;;9.55;5.22;;;21.60;97.70;;;;;;5033609;28;209391;-68
2022/08/14 00:44:19;;;;;;;9.18;5.38;;;21.60;97.90;;;;;;5057966;28;251660;-67
2022/08/14 00:46:45;;;;;;;11.68;5.32;;;21.50;98.10;;;;;;5031714;28;210883;-66
2022/08/14 00:49:11;;;;;;;10.10;5.45;;;21.50;98.10;;;;;;5055146;28;254933;-66
2022/08/14 00:51:38;;;;;;;11.45;5.30;;;21.50;98.20;;;;;;5018678;28;207180;-66
2022/08/14 00:54:05;;;;;;;10.38;5.45;;;21.40;98.20;;;;;;5058209;28;268015;-66
2022/08/14 00:56:32;;;;;;;11.65;5.47;;;21.40;98.30;;;;;;5016387;28;206198;-66
2022/08/14 00:58:59;;;;;;;11.20;5.40;;;21.30;98.40;;;;;;5057849;28;255092;-66
2022/08/14 01:01:25;;;;;;;10.43;5.43;;;21.30;98.40;;;;;;5022709;28;211497;-66
2022/08/14 01:03:52;;;;;;;11.63;5.70;;;21.30;98.60;;;;;;5023831;28;270187;-66
2022/08/14 01:06:20;;;;;;;11.13;5.85;;;21.20;98.80;;;;;;5009427;28;206972;-66
2022/08/14 01:08:46;;;;;;;10.38;5.55;;;21.20;98.80;;;;;;5046069;28;253487;-66
2022/08/14 01:11:15;;;;;;;10.00;5.72;;;21.20;98.90;;;;;;5030480;28;222728;-66
2022/08/14 01:13:43;;;;;;;12.52;5.80;;;21.10;98.80;;;;;;5063495;28;263542;-67
2022/08/14 01:16:12;;;;;;;11.18;5.53;;;21.10;98.90;;;;;;5029546;28;215149;-66
2022/08/14 01:21:31;;;;;;;11.50;5.43;;;21.00;99.00;;;;;;5039534;28;209727;-66
2022/08/14 01:23:58;;;;;;;13.30;5.90;;;21.00;99.00;;;;;;5034295;28;149085;-66
2022/08/14 01:26:27;;;;;;;12.52;6.30;;;21.00;99.00;;;;;;5020416;28;209219;-67
2022/08/14 01:28:56;;;;;;;12.02;5.93;;;20.90;99.20;;;;;;5049434;28;240707;-66
2022/08/14 01:31:25;;;;;;;9.95;6.32;;;20.90;99.30;;;;;;5031566;28;209292;-66
2022/08/14 01:33:55;;;;;;;11.77;6.30;;;20.90;99.50;;;;;;5069686;28;272612;-65
2022/08/14 01:36:24;;;;;;;11.27;6.20;;;20.90;99.50;;;;;;5021763;28;208394;-66
2022/08/14 01:38:52;;;;;;;11.82;6.45;;;20.90;99.50;;;;;;5064826;28;268919;-66
2022/08/14 01:41:20;;;;;;;14.13;6.40;;;20.80;99.70;;;;;;5020457;28;207008;-66
2022/08/14 01:43:47;;;;;;;12.15;6.32;;;20.80;99.80;;;;;;5063483;28;254875;-66
2022/08/14 01:46:18;;;;;;;11.90;6.40;;;20.80;99.80;;;;;;5036184;28;211258;-66
2022/08/14 01:48:45;;;;;;;;;;;20.70;99.80;;;;;;5054855;28;140301;-66
2022/08/14 01:51:14;;;;;;;9.82;6.63;;;20.70;99.90;;;;;;5037550;28;216357;-66
2022/08/14 01:53:43;;;;;;;11.02;6.90;;;20.70;99.90;;;;;;5049207;28;265880;-66
2022/08/14 01:56:10;;;;;;;12.15;6.97;;;20.60;99.90;;;;;;5027441;28;224636;-65
2022/08/14 01:58:37;;;;;;;10.73;6.73;;;20.60;99.90;;;;;;5043385;28;284123;-65
2022/08/14 02:01:04;;;;;;;10.57;6.40;;;20.60;99.90;;;;;;5032251;28;211861;-66
2022/08/14 02:03:38;;;;;;;11.57;6.88;;;20.60;99.90;;;;;;5033689;28;256972;-66
2022/08/14 02:06:05;;;;;;;11.15;7.03;;;20.60;99.90;;;;;;5033454;28;209840;-65
2022/08/14 02:08:31;;;;;;;12.00;7.30;;;20.60;99.90;;;;;;5044261;28;268447;-66
2022/08/14 02:11:17;;;;;;;14.27;7.20;;;20.60;99.90;;;;;;5032338;28;213709;-66
2022/08/14 02:13:46;;;;;;;10.93;6.88;;;20.50;99.90;;;;;;5050397;28;221336;-66
2022/08/14 02:16:16;;;;;;;13.65;7.80;;;20.50;99.90;;;;;;5040387;28;216724;-66
2022/08/14 02:18:42;;;;;;;10.25;6.65;;;20.50;99.90;;;;;;5049959;28;267432;-66
2022/08/14 02:21:10;;;;;;;11.30;7.15;;;20.50;99.90;;;;;;5038756;28;209181;-66
2022/08/14 02:23:38;;;;;;;12.18;7.60;;;20.50;99.90;;;;;;5058240;28;268094;-66
2022/08/14 02:26:15;;;;;;;11.40;7.30;;;20.50;99.90;;;;;;5035697;28;210372;-66
2022/08/14 02:28:42;;;;;;;12.73;7.80;;;20.40;99.90;;;;;;5057826;28;260638;-66
2022/08/14 02:31:10;;;;;;;14.50;8.25;;;20.40;99.90;;;;;;5031128;28;209645;-66
2022/08/14 02:33:36;;;;;;;12.67;7.63;;;20.40;99.90;;;;;;5061910;28;258103;-66
2022/08/14 02:36:03;;;;;;;12.32;7.07;;;20.40;99.90;;;;;;5023457;28;206472;-65
2022/08/14 02:38:30;;;;;;;12.35;7.60;;;20.40;99.90;;;;;;5063624;28;268540;-66
2022/08/14 02:40:57;;;;;;;11.52;7.50;;;20.40;99.90;;;;;;5034330;28;209205;-65
2022/08/14 02:43:23;;;;;;;12.40;8.07;;;20.30;99.90;;;;;;5061750;28;261956;-65
2022/08/14 02:45:49;;;;;;;14.63;8.40;;;20.30;99.90;;;;;;5010917;28;209896;-66
2022/08/14 02:48:15;;;;;;;14.73;7.93;;;20.30;99.90;;;;;;5065236;28;20417;-66
2022/08/14 02:50:42;;;;;;;13.13;8.05;;;20.30;99.90;;;;;;5050747;28;213002;-66
2022/08/14 02:53:10;;;;;;;12.98;7.90;;;20.30;99.90;;;;;;5018621;28;210929;-66
2022/08/14 02:55:39;;;;;;;15.20;8.60;;;20.30;99.90;;;;;;5063733;28;266244;-66
2022/08/14 02:58:05;;;;;;;13.95;7.93;;;20.20;99.90;;;;;;5002711;28;212276;-66
2022/08/14 03:00:34;;;;;;;11.68;8.02;;;20.30;99.90;;;;;;5054211;28;112104;-66
2022/08/14 03:03:01;;;;;;;11.40;8.20;;;20.20;99.90;;;;;;5018756;28;208769;-66
2022/08/14 03:05:31;;;;;;;14.05;8.05;;;20.20;99.90;;;;;;5030246;28;257475;-66
2022/08/14 03:08:13;;;;;;;14.25;8.43;;;20.20;99.90;;;;;;5006156;28;208454;-66
2022/08/14 03:10:40;;;;;;;13.70;8.40;;;20.20;99.90;;;;;;5050257;28;273061;-66
2022/08/14 03:13:06;;;;;;;13.52;8.25;;;20.20;99.90;;;;;;5024350;28;146591;-66
2022/08/14 03:15:37;;;;;;;13.68;8.27;;;20.20;99.90;;;;;;5063687;28;263946;-67
2022/08/14 03:18:04;;;;;;;;;;;20.20;99.90;;;;;;5025660;28;207255;-66
2022/08/14 03:20:31;;;;;;;12.45;8.52;;;20.20;99.90;;;;;;5063352;28;246067;-65
2022/08/14 03:22:59;;;;;;;11.88;8.40;;;20.10;99.90;;;;;;5031035;28;219234;-66
2022/08/14 03:25:25;;;;;;;14.15;8.77;;;20.10;99.90;;;;;;5048713;28;165291;-66
2022/08/14 03:27:52;;;;;;;13.02;8.63;;;20.10;99.90;;;;;;5025385;28;210897;-66
2022/08/14 03:30:18;;;;;;;17.05;9.20;;;20.10;99.90;;;;;;5063181;28;259252;-65
2022/08/14 03:32:44;;;;;;;14.65;8.13;;;20.10;99.90;;;;;;5033948;28;209495;-66
2022/08/14 03:35:10;;;;;;;13.32;8.98;;;20.00;99.90;;;;;;5061103;28;266088;-67
2022/08/14 03:37:37;;;;;;;13.85;9.25;;;20.00;99.90;;;;;;5016168;28;211139;-65
2022/08/14 03:40:05;;;;;;;15.60;9.05;;;20.00;99.90;;;;;;5060772;28;270575;-66
2022/08/14 03:42:32;;;;;;;13.23;8.85;;;20.00;99.90;;;;;;5024816;28;211131;-66
2022/08/14 03:44:59;;;;;;;15.80;9.35;;;20.00;99.90;;;;;;5058201;28;270859;-66
2022/08/14 03:47:25;;;;;;;13.65;8.82;;;20.00;99.90;;;;;;5035239;28;207758;-67
2022/08/14 03:49:52;;;;;;;12.05;9.20;;;19.90;99.90;;;;;;5049411;28;257492;-66
2022/08/14 03:52:18;;;;;;;14.18;9.25;;;19.90;99.90;;;;;;5000604;28;207922;-67
2022/08/14 03:54:45;;;;;;;15.85;9.65;;;19.90;99.90;;;;;;5066572;28;258103;-66
2022/08/14 03:57:11;;;;;;;13.55;9.20;;;19.90;99.90;;;;;;5031886;28;217708;-66
2022/08/14 03:59:37;;;;;;;19.20;9.25;;;19.90;99.90;;;;;;5052242;28;94296;-66
2022/08/14 04:02:04;;;;;;;14.50;8.82;;;19.90;99.90;;;;;;5033354;28;215553;-66
2022/08/14 04:04:31;;;;;;;15.50;9.25;;;19.80;99.90;;;;;;5031763;28;254587;-66
2022/08/14 04:06:58;;;;;;;12.27;8.55;;;19.80;99.90;;;;;;5012032;28;215951;-66
2022/08/14 04:09:25;;;;;;;14.52;9.77;;;19.80;99.90;;;;;;5059312;28;263580;-65
2022/08/14 04:11:52;;;;;;;14.45;9.68;;;19.80;99.90;;;;;;5029040;28;214608;-66
2022/08/14 04:14:18;;;;;;;13.48;9.23;;;19.80;99.90;;;;;;5061284;28;257283;-66
2022/08/14 04:16:45;;;;;;;14.75;9.90;;;19.80;99.90;;;;;;5014743;28;222646;-66
2022/08/14 04:19:11;;;;;;;13.95;9.80;;;19.80;99.90;;;;;;5060747;28;261043;-65
2022/08/14 04:21:38;;;;;;;14.63;9.73;;;19.80;99.90;;;;;;5039573;28;209580;-65
2022/08/14 04:24:05;;;;;;;15.60;9.50;;;19.80;99.90;;;;;;5058226;28;254137;-65
2022/08/14 04:26:31;;;;;;;13.40;9.95;;;19.70;99.90;;;;;;5034349;28;208431;-65
2022/08/14 04:28:58;;;;;;;14.88;10.15;;;19.70;99.90;;;;;;5058852;28;265907;-66
2022/08/14 04:31:25;;;;;;;13.75;9.70;;;19.70;99.90;;;;;;5028391;28;209463;-65
2022/08/14 04:33:52;;;;;;;15.80;10.50;;;19.70;99.90;;;;;;5048103;28;241779;-66
2022/08/14 04:36:18;;;;;;;14.57;9.63;;;19.70;99.90;;;;;;5030028;28;206508;-66
2022/08/14 04:44:15;;;;;;;13.90;9.80;;;19.70;99.90;;;;;;5071274;28;261894;-67
2022/08/14 04:48:11;;;;;;;16.60;9.13;;;19.70;99.90;;;;;;5053001;28;218688;-66
2022/08/14 04:49:28;;;;;;;14.07;9.55;;;19.70;99.90;;;;;;5078775;28;274973;-66
2022/08/14 04:51:55;;;;;;;17.67;10.57;;;19.70;99.90;;;;;;5045503;28;213891;-67
2022/08/14 04:54:25;;;;;;;15.27;10.15;;;19.80;99.90;;;;;;5068121;28;258266;-66
2022/08/14 04:56:53;;;;;;;15.55;10.30;;;19.80;99.90;;;;;;4988251;28;1117850;-66
2022/08/14 04:59:20;;;;;;;15.43;10.32;;;19.80;99.90;;;;;;5059755;28;253620;-66
2022/08/14 05:01:46;;;;;;;17.02;9.80;;;19.80;99.90;;;;;;5027526;28;227274;-67
2022/08/14 05:04:12;;;;;;;14.05;9.82;;;19.80;99.90;;;;;;5044702;28;262062;-65
2022/08/14 05:06:38;;;;;;;15.43;9.50;;;19.90;99.90;;;;;;5029721;28;211329;-65
2022/08/14 05:09:06;;;;;;;13.50;9.82;;;19.90;99.90;;;;;;5047372;28;189007;-65
2022/08/14 05:11:34;;;;;;;15.13;10.15;;;20.00;99.90;;;;;;5038488;28;208363;-66
2022/08/14 05:14:02;;;;;;;12.07;9.25;;;20.00;99.90;;;;;;5076106;28;277037;-66
2022/08/14 05:16:29;;;;;;;16.88;9.40;;;20.00;99.90;;;;;;5033753;28;212303;-65
2022/08/14 05:18:57;;;;;;;13.82;9.52;;;20.10;99.90;;;;;;5071639;28;262436;-66
2022/08/14 05:21:24;;;;;;;13.30;9.52;;;20.10;99.90;;;;;;5037028;28;211071;-65
2022/08/14 05:23:50;;;;;;;15.85;9.68;;;20.10;99.90;;;;;;5054273;28;275571;-65
2022/08/14 05:26:20;;;;;;;12.38;9.25;;;20.20;99.90;;;;;;5032697;28;209259;-66
2022/08/14 05:28:47;;;;;;;15.18;9.30;;;20.30;99.90;;;;;;5059145;28;273598;-66
2022/08/14 05:31:16;;;;;;;16.30;8.57;;;20.30;99.90;;;;;;5030111;28;209998;-65
2022/08/14 05:33:43;;;;;;;14.15;9.10;;;20.40;99.90;;;;;;5061629;28;269493;-65
2022/08/14 05:36:10;;;;;;;11.40;8.73;;;20.40;99.90;;;;;;5039577;28;210108;-66
2022/08/14 05:38:39;;;;;;;13.38;8.98;;;20.50;99.90;;;;;;5058765;28;270708;-66
2022/08/14 05:41:08;;;;;;;13.10;8.18;;;20.60;99.90;;;;;;5033610;28;212859;-66
2022/08/14 05:43:34;;;;;;;13.43;8.90;;;20.60;99.90;;;;;;5063214;28;250950;-66
2022/08/14 05:46:01;;;;;;;13.90;8.30;;;20.70;99.90;;;;;;4999711;28;210191;-66
2022/08/14 05:48:28;;;;;;;13.65;8.23;;;20.80;99.90;;;;;;5059430;28;264338;-66
2022/08/14 05:50:54;;;;;;;12.65;7.90;;;20.90;99.90;;;;;;5030200;28;210258;-66
2022/08/14 05:53:23;;;;;;;11.88;7.90;;;21.00;99.90;;;;;;5033553;28;270617;-67
2022/08/14 05:55:49;;;;;;;12.55;8.00;;;21.10;99.90;;;;;;5035658;28;208414;-67
2022/08/14 05:58:16;;;;;;;13.27;7.78;;;21.10;99.90;;;;;;5083317;28;20056;-64
2022/08/14 06:00:43;;;;;;;10.95;7.55;;;21.20;99.90;;;;;;5036520;28;209126;-66
2022/08/14 06:03:15;;;;;;;12.48;7.88;;;21.30;99.90;;;;;;5050165;28;206684;-66
2022/08/14 06:05:46;;;;;;;13.85;7.68;;;21.40;99.90;;;;;;5011324;28;226864;-66
2022/08/14 06:08:17;;;;;;;12.13;7.90;;;21.40;99.90;;;;;;5022602;28;210076;-65
2022/08/14 06:10:44;;;;;;;11.60;7.90;;;21.50;99.90;;;;;;5023982;28;214064;-68
2022/08/14 06:13:11;;;;;;;14.43;8.43;;;21.60;99.90;;;;;;5050466;28;208434;-66
2022/08/14 06:15:37;;;;;;;11.98;8.30;;;21.60;99.90;;;;;;5070367;28;260118;-67
2022/08/14 06:18:04;;;;;;;13.15;9.00;;;21.70;99.90;;;;;;5023336;28;203986;-67
2022/08/14 06:20:30;;;;;;;11.60;8.55;;;21.80;99.90;;;;;;5072787;28;270010;-65
2022/08/14 06:22:58;;;;;;;12.00;9.10;;;22.00;99.90;;;;;;5043636;28;217885;-67
2022/08/14 06:25:24;;;;;;;12.50;8.68;;;22.40;99.90;;;;;;5062068;28;263167;-66
2022/08/14 06:27:51;;;;;;;13.20;8.65;;;22.70;99.90;;;;;;5045239;28;209045;-67
2022/08/14 06:30:24;;;;;;;12.85;8.82;;;23.00;99.90;;;;;;5064692;28;268970;-67
2022/08/14 06:32:50;;;;;;;12.07;8.43;;;23.30;99.90;;;;;;5020803;28;207729;-67
2022/08/14 06:35:19;;;;;;;15.30;8.32;;;23.60;99.90;;;;;;5065798;28;271613;-66
2022/08/14 06:37:52;;;;;;;12.63;8.38;;;23.80;99.90;;;;;;5039584;28;206428;-67
2022/08/14 06:40:21;;;;;;;12.50;8.07;;;24.10;99.90;;;;;;5037119;28;182904;-66
2022/08/14 06:42:48;;;;;;;13.38;7.80;;;24.30;99.90;;;;;;5019981;28;217508;-67
2022/08/14 06:45:15;;;;;;;14.73;7.18;;;24.60;99.70;;;;;;5059477;28;267047;-67
2022/08/14 06:47:45;;;;;;;13.35;6.80;;;24.90;99.40;;;;;;5019123;28;199984;-68
2022/08/14 06:50:14;;;;;;;11.75;6.50;;;25.10;99.10;;;;;;5062833;28;254499;-67
2022/08/14 06:52:41;;;;;;;11.35;6.35;;;25.40;98.80;;;;;;5041901;28;219687;-67
2022/08/14 06:55:10;;;;;;;10.45;5.80;;;25.60;98.50;;;;;;5060868;28;262826;-67
2022/08/14 06:57:39;;;;;;;10.25;5.97;;;25.90;97.60;;;;;;5013796;28;209826;-67
2022/08/14 07:00:08;;;;;;;10.25;5.88;;;26.10;97.60;;;;;;5045359;28;266592;-68
2022/08/14 07:08:04;;;;;;;13.07;5.18;;;26.90;96.90;;;;;;5016402;28;219916;-68
2022/08/14 07:10:32;;;;;;;9.10;5.05;;;27.10;96.30;;;;;;5062711;28;278261;-67
2022/08/14 07:12:58;;;;;;;10.55;5.03;;;27.30;96.00;;;;;;5026656;28;216558;-66
2022/08/14 07:15:24;;;;;;;11.80;5.00;;;27.50;95.80;;;;;;5050735;28;244154;-67
2022/08/14 07:17:50;;;;;;;9.05;4.90;;;27.70;95.70;;;;;;5025882;28;210619;-69
2022/08/14 07:20:19;;;;;;;8.55;4.90;;;28.10;95.00;;;;;;5061038;28;268197;-67
2022/08/14 07:22:46;;;;;;;11.10;4.63;;;28.20;94.70;;;;;;5022819;28;206340;-66
2022/08/14 07:25:13;;;;;;;10.93;5.10;;;28.30;94.20;;;;;;5060326;28;269774;-67
2022/08/14 07:27:41;;;;;;;9.30;4.80;;;28.30;93.70;;;;;;5007738;28;218987;-67
2022/08/14 07:30:08;;;;;;;9.82;4.53;;;28.40;93.90;;;;;;5061690;28;267057;-67
2022/08/14 07:32:34;;;;;;;11.40;5.00;;;28.70;93.60;;;;;;5021073;28;209408;-67
2022/08/14 07:35:01;;;;;;;9.68;4.30;;;29.00;93.20;;;;;;5058399;28;281567;-68
2022/08/14 07:37:27;;;;;;;10.32;4.60;;;29.20;92.90;;;;;;5034610;28;209372;-69
2022/08/14 07:39:53;;;;;;;11.02;4.47;;;29.30;92.40;;;;;;5062750;28;256949;-68
2022/08/14 07:42:19;;;;;;;9.10;4.20;;;29.50;92.00;;;;;;5021683;28;208710;-67
2022/08/14 07:44:45;;;;;;;8.40;4.20;;;29.80;91.70;;;;;;5049517;28;139795;-68
2022/08/14 07:47:11;;;;;;;8.27;4.13;;;30.00;91.50;;;;;;5023640;28;206758;-69
2022/08/14 07:49:38;;;;;;;10.38;4.43;;;30.30;91.20;;;;;;5060721;28;270621;-70
2022/08/14 07:52:06;;;;;;;9.13;4.47;;;30.50;90.70;;;;;;5035967;28;209502;-68
2022/08/14 07:54:32;;;;;;;9.48;4.30;;;30.80;90.00;;;;;;5060239;28;270030;-69
2022/08/14 07:56:59;;;;;;;14.38;4.90;;;30.80;89.10;;;;;;5030908;28;209649;-69
2022/08/14 07:59:26;;;;;;;9.68;4.32;;;30.90;88.50;;;;;;5062975;28;255024;-70
2022/08/14 08:01:53;;;;;;;10.15;4.38;;;31.00;87.90;;;;;;5021760;28;210957;-70
2022/08/14 08:04:25;;;;;;;11.02;4.45;;;31.10;86.80;;;;;;5042592;28;271823;-70
2022/08/14 08:06:52;;;;;;;11.10;4.28;;;31.30;86.30;;;;;;5037484;28;223483;-70
2022/08/14 08:09:24;;;;;;;8.95;4.40;;;31.50;85.50;;;;;;5062230;28;258956;-69
2022/08/14 08:11:52;;;;;;;9.25;4.07;;;31.70;84.80;;;;;;5030895;28;210888;-69
2022/08/14 09:41:42;;;;;;;8.47;3.37;;;35.90;63.90;;;;;;4950348;28;248472;-70
2022/08/14 09:44:29;;;;;;;7.03;3.15;;;38.60;54.60;;;;;;4997450;28;20070;-70
2022/08/14 09:46:56;;;;;;;9.77;3.30;;;37.90;55.60;;;;;;4932261;28;208176;-68
2022/08/14 09:49:34;;;;;;;10.88;3.33;;;37.50;55.60;;;;;;4979548;28;20057;-71
2022/08/14 09:52:11;;;;;;;8.57;3.42;;;37.30;54.90;;;;;;4905953;28;207088;-68
2022/08/14 09:54:41;;;;;;;7.60;3.20;;;37.40;55.60;;;;;;4978353;28;263709;-67
2022/08/14 09:57:10;;;;;;;9.20;3.17;;;37.20;55.70;;;;;;4971033;28;207022;-69
2022/08/14 09:59:45;;;;;;;10.40;3.50;;;37.30;55.10;;;;;;4970553;28;264497;-69
2022/08/14 10:02:22;;;;;;;8.68;3.25;;;37.50;54.80;;;;;;4937929;28;177237;-71
2022/08/14 10:05:06;;;;;;;11.75;3.00;;;37.50;54.30;;;;;;4923907;28;260166;-66
2022/08/14 10:07:52;;;;;;;10.82;2.90;;;37.60;54.00;;;;;;4929627;28;208985;-66
2022/08/14 10:10:32;;;;;;;7.78;2.90;;;37.60;53.60;;;;;;4962635;28;73263;-68
2022/08/14 10:13:01;;;;;;;7.55;2.95;;;37.80;53.70;;;;;;4954678;28;215260;-67
2022/08/14 10:15:30;;;;;;;8.43;2.90;;;38.00;53.40;;;;;;4993780;28;235393;-66
2022/08/14 10:18:02;;;;;;;;;;;38.30;53.30;;;;;;4939854;28;207354;-66
2022/08/14 10:20:33;;;;;;;9.63;2.83;;;38.10;50.70;;;;;;4974296;28;186674;-67
2022/08/14 10:23:18;;;;;;;7.15;2.67;;;38.00;52.40;;;;;;4905554;28;208321;-67
2022/08/14 10:25:50;;;;;;;7.60;2.70;;;38.30;52.80;;;;;;4957744;28;261287;-67
2022/08/14 10:28:18;;;;;;;7.38;2.67;;;38.60;51.80;;;;;;4931581;28;208934;-68
2022/08/14 10:30:47;;;;;;;6.30;2.47;;;38.90;51.50;;;;;;4966742;28;270288;-66
2022/08/14 10:33:28;;;;;;;6.63;2.72;;;39.10;51.40;;;;;;4950117;28;203632;-67
2022/08/14 10:35:55;;;;;;;7.65;2.67;;;39.10;50.00;;;;;;4966134;28;158582;-68
2022/08/14 10:38:31;;;;;;;8.32;2.50;;;39.10;50.80;;;;;;4958196;28;106708;-67
2022/08/14 10:41:14;;;;;;;8.23;2.70;;;39.20;50.10;;;;;;4964136;28;251130;-67
2022/08/14 10:43:43;;;;;;;7.82;3.03;;;39.50;50.80;;;;;;4932993;28;209575;-67
2022/08/14 10:46:16;;;;;;;9.30;2.53;;;39.60;49.30;;;;;;4936279;28;263367;-67
2022/08/14 10:49:03;;;;;;;9.23;2.67;;;39.50;49.30;;;;;;4996952;28;20433;-67
2022/08/14 10:51:32;;;;;;;7.03;2.40;;;39.50;49.20;;;;;;4935017;28;277938;-67
2022/08/14 10:54:00;;;;;;;;;;;39.60;49.60;;;;;;4984772;28;20123;-66
2022/08/14 10:56:32;;;;;;;7.17;2.40;;;39.70;48.90;;;;;;4934861;28;274495;-67
2022/08/14 10:59:04;;;;;;;6.82;2.40;;;39.60;48.60;;;;;;4989371;28;20670;-68
2022/08/14 11:19:26;;;;;;;7.20;2.85;;;39.40;48.50;;;;;;5000990;27;219331;-79
2022/08/14 11:21:53;;;;;;;6.55;2.63;;;39.70;48.40;;;;;;5033379;28;20729;-81
2022/08/14 11:24:21;;;;;;;7.50;2.80;;;39.90;47.80;;;;;;4998099;28;209062;-81
2022/08/14 11:26:49;;;;;;;7.65;2.80;;;40.10;47.20;;;;;;5011726;28;185227;-82
2022/08/14 11:29:16;;;;;;;7.95;2.70;;;40.20;47.10;;;;;;4984926;28;39055;-82
2022/08/14 11:31:43;;;;;;;8.00;2.80;;;40.50;46.90;;;;;;4993102;28;217559;-81
2022/08/14 11:34:12;;;;;;;11.20;3.25;;;40.60;46.50;;;;;;4963499;28;206302;-80
2022/08/14 11:36:39;;;;;;;9.57;2.90;;;40.50;46.40;;;;;;4999601;28;122603;-81
2022/08/14 11:39:05;;;;;;;7.93;2.92;;;40.50;46.10;;;;;;4963919;28;216355;-81
2022/08/14 11:41:33;;;;;;;6.72;2.80;;;40.60;46.40;;;;;;4989539;28;24344;-81
2022/08/14 11:43:59;;;;;;;7.07;2.90;;;40.50;46.60;;;;;;4949441;28;195930;-81
2022/08/14 12:19:01;;;;;;;7.95;2.97;;;40.60;45.90;;;;;;5009192;27;208194;-66
2022/08/14 12:21:27;;;;;;;7.57;3.00;;;43.40;42.10;;;;;;5032021;28;258568;-66
2022/08/14 12:24:25;;;;;;;6.97;2.87;;;42.80;42.70;;;;;;4989981;28;216968;-68
2022/08/14 12:26:55;;;;;;;7.00;2.90;;;42.50;43.40;;;;;;5037619;28;267513;-69
2022/08/14 12:29:21;;;;;;;7.85;2.97;;;42.20;42.80;;;;;;5001063;28;164272;-68
2022/08/14 12:32:05;;;;;;;7.30;2.97;;;42.10;42.70;;;;;;5032243;28;254017;-68
2022/08/14 12:34:34;;;;;;;7.78;2.75;;;42.10;42.70;;;;;;4993272;28;206939;-68
2022/08/14 12:37:04;;;;;;;8.35;3.00;;;42.10;43.20;;;;;;5029884;28;249008;-68
2022/08/14 12:39:32;;;;;;;9.48;2.78;;;42.00;42.30;;;;;;5002484;28;211846;-68
2022/08/14 12:42:08;;;;;;;8.55;2.67;;;41.60;42.30;;;;;;5020564;28;260643;-68
2022/08/14 12:44:37;;;;;;;7.38;2.72;;;41.30;42.90;;;;;;4978158;28;212375;-69
2022/08/14 12:47:11;;;;;;;7.85;3.00;;;41.50;42.80;;;;;;5019330;28;257530;-69
2022/08/14 13:02:22;;;;;;;8.27;2.90;;;41.60;42.30;;;;;;4997243;27;1436916;-68
2022/08/14 13:04:49;;;;;;;7.75;2.65;;;43.40;41.10;;;;;;5051860;28;20060;-66
2022/08/14 13:07:15;;;;;;;9.55;2.90;;;42.80;41.00;;;;;;4991637;28;210245;-67
2022/08/14 13:09:41;;;;;;;7.03;2.80;;;42.30;41.20;;;;;;5012297;28;20061;-68
2022/08/14 13:12:08;;;;;;;8.13;3.03;;;42.00;41.60;;;;;;4972728;28;230189;-68
2022/08/14 13:14:35;;;;;;;9.38;3.13;;;41.50;41.60;;;;;;5032612;28;20482;-66
2022/08/14 13:17:03;;;;;;;7.18;2.88;;;41.30;42.20;;;;;;4971453;28;207105;-67
2022/08/14 13:19:30;;;;;;;8.15;3.03;;;40.60;42.20;;;;;;5030770;28;20045;-68
2022/08/14 13:21:56;;;;;;;7.07;2.88;;;40.40;42.90;;;;;;5027980;28;211293;-66
2022/08/14 13:24:24;;;;;;;6.63;2.67;;;40.40;42.90;;;;;;5009303;28;203101;-66
2022/08/14 13:26:55;;;;;;;8.48;2.80;;;40.60;43.20;;;;;;5038843;28;20391;-67
2022/08/14 13:29:25;;;;;;;6.80;2.85;;;40.30;42.60;;;;;;4960225;28;207590;-69
2022/08/14 13:31:53;;;;;;;7.28;2.85;;;40.50;43.20;;;;;;5036243;28;20068;-67
2022/08/14 13:34:28;;;;;;;7.22;2.90;;;40.50;42.30;;;;;;4993502;28;163882;-67
2022/08/14 13:36:58;;;;;;;8.88;2.88;;;39.80;42.10;;;;;;5036938;28;20049;-67
2022/08/14 13:39:25;;;;;;;7.05;3.00;;;39.50;42.70;;;;;;4982057;28;207250;-67
2022/08/14 13:41:51;;;;;;;7.45;3.20;;;39.10;44.00;;;;;;5031480;28;20054;-67
2022/08/14 13:44:19;;;;;;;9.52;3.38;;;39.10;43.90;;;;;;4989087;28;209906;-68
2022/08/14 13:46:47;;;;;;;8.60;3.33;;;38.70;43.80;;;;;;5039123;28;20045;-67
2022/08/14 13:49:14;;;;;;;9.30;3.20;;;38.20;44.20;;;;;;4997852;28;212292;-67
2022/08/14 13:51:46;;;;;;;8.15;3.22;;;37.70;44.80;;;;;;4998104;28;244749;-67
2022/08/14 13:54:18;;;;;;;7.78;3.25;;;37.90;45.90;;;;;;4991217;28;207446;-68
2022/08/14 13:56:45;;;;;;;9.63;3.38;;;38.60;45.70;;;;;;5013353;28;275376;-67
2022/08/14 13:59:12;;;;;;;9.30;3.42;;;39.30;44.60;;;;;;4975439;28;220173;-64
2022/08/14 14:01:43;;;;;;;8.45;3.38;;;39.90;44.00;;;;;;4999817;28;124411;-65
2022/08/14 14:04:14;;;;;;;7.88;3.33;;;40.30;44.10;;;;;;4975020;28;210410;-65
2022/08/14 14:08:58;;;;;;;8.52;3.28;;;40.60;42.80;;;;;;5011146;27;211716;-78
2022/08/14 14:11:25;;;;;;;8.45;3.50;;;40.80;42.70;;;;;;5019334;28;273187;-78
2022/08/14 14:13:54;;;;;;;8.35;3.17;;;40.40;42.80;;;;;;4946245;28;206561;-79
2022/08/14 14:16:21;;;;;;;8.45;3.38;;;40.10;42.60;;;;;;5013730;28;265945;-79
2022/08/14 14:18:59;;;;;;;8.43;3.40;;;40.00;43.10;;;;;;5001275;28;206405;-78
2022/08/14 14:21:27;;;;;;;9.82;3.40;;;40.40;42.60;;;;;;5007939;28;272077;-80
2022/08/14 14:23:53;;;;;;;8.48;3.25;;;40.90;42.60;;;;;;4978825;28;210289;-78
2022/08/14 14:26:20;;;;;;;8.45;3.28;;;41.20;42.40;;;;;;4985176;28;268819;-79
2022/08/14 14:28:51;;;;;;;8.38;3.20;;;41.70;40.80;;;;;;4964924;28;229343;-79
2022/08/14 14:31:27;;;;;;;11.57;3.83;;;41.90;42.10;;;;;;5023610;28;255245;-79
2022/08/14 14:34:03;;;;;;;10.57;3.38;;;42.10;41.20;;;;;;5002172;28;201162;-77
2022/08/14 14:36:31;;;;;;;9.68;3.70;;;42.30;40.10;;;;;;5056958;28;20068;-79
2022/08/14 14:39:00;;;;;;;7.90;3.25;;;42.40;40.70;;;;;;4989420;28;168668;-78
2022/08/14 14:41:29;;;;;;;7.63;3.13;;;42.50;41.00;;;;;;5043311;28;20041;-79
2022/08/14 14:43:57;;;;;;;;;;;42.70;40.70;;;;;;5003771;28;212005;-79
2022/08/14 14:46:24;;;;;;;8.65;3.63;;;42.70;40.30;;;;;;5060549;28;20004;-78
2022/08/14 14:48:50;;;;;;;7.70;3.17;;;42.50;41.20;;;;;;4997706;28;222372;-79
2022/08/14 14:51:18;;;;;;;7.68;3.40;;;41.80;40.40;;;;;;5022655;28;20061;-79
2022/08/14 14:53:45;;;;;;;8.48;3.40;;;42.10;41.20;;;;;;4963750;28;203596;-78
2022/08/14 14:56:12;;;;;;;8.20;3.40;;;42.20;40.70;;;;;;5016980;28;20049;-78
2022/08/14 14:58:40;;;;;;;7.72;3.35;;;42.00;40.40;;;;;;5001536;28;195013;-78
2022/08/14 15:01:08;;;;;;;9.23;3.40;;;42.00;40.70;;;;;;5030017;28;20056;-78
2022/08/14 15:03:37;;;;;;;8.13;3.47;;;42.10;40.40;;;;;;4975855;28;144446;-79
2022/08/14 15:06:04;;;;;;;7.43;3.08;;;42.30;40.60;;;;;;4999611;28;261446;-79
2022/08/14 15:08:31;;;;;;;8.18;3.35;;;42.50;41.20;;;;;;4974884;28;215094;-79
2022/08/14 15:10:58;;;;;;;10.70;3.50;;;42.70;40.00;;;;;;5006288;28;253071;-79
2022/08/14 15:13:25;;;;;;;9.63;3.67;;;42.70;40.40;;;;;;4973451;28;210588;-80
2022/08/14 15:15:55;;;;;;;8.50;3.67;;;42.70;39.90;;;;;;5005665;28;20053;-80
2022/08/14 15:18:25;;;;;;;11.10;3.60;;;42.40;40.30;;;;;;4952920;28;205385;-80
2022/08/14 15:20:53;;;;;;;8.35;3.63;;;42.60;40.40;;;;;;5018877;28;20053;-80
2022/08/14 15:23:21;;;;;;;14.85;10.52;;;42.90;40.60;;;;;;4950607;28;206623;-79
2022/08/14 15:25:47;;;;;;;11.13;6.88;;;43.00;41.00;;;;;;5022239;28;20064;-83